sensor_id;sensor_type;location;lat;lon;timestamp;temperature;humidity
84176;DHT22;74306;40.114;18.304;2024-03-23T00:52:33;14.80;80.30
84176;DHT22;74306;40.114;18.304;2024-03-23T00:55:01;14.80;80.00
84176;DHT22;74306;40.114;18.304;2024-03-23T00:57:29;14.60;80.80
84176;DHT22;74306;40.114;18.304;2024-03-23T00:59:57;14.70;81.00
84176;DHT22;74306;40.114;18.304;2024-03-23T01:02:24;14.80;80.30
84176;DHT22;74306;40.114;18.304;2024-03-23T01:04:52;14.70;80.80
84176;DHT22;74306;40.114;18.304;2024-03-23T01:07:19;14.70;81.10
84176;DHT22;74306;40.114;18.304;2024-03-23T01:09:49;14.60;81.40
84176;DHT22;74306;40.114;18.304;2024-03-23T01:12:17;14.70;81.40
84176;DHT22;74306;40.114;18.304;2024-03-23T01:14:45;14.80;80.80
84176;DHT22;74306;40.114;18.304;2024-03-23T01:17:12;14.90;80.50
84176;DHT22;74306;40.114;18.304;2024-03-23T01:19:40;15.00;80.00
84176;DHT22;74306;40.114;18.304;2024-03-23T01:22:11;15.00;80.20
84176;DHT22;74306;40.114;18.304;2024-03-23T01:24:39;14.90;80.20
84176;DHT22;74306;40.114;18.304;2024-03-23T01:27:08;14.80;80.60
84176;DHT22;74306;40.114;18.304;2024-03-23T01:29:37;14.70;81.00
84176;DHT22;74306;40.114;18.304;2024-03-23T01:32:04;14.70;81.00
84176;DHT22;74306;40.114;18.304;2024-03-23T01:34:33;14.70;81.20
84176;DHT22;74306;40.114;18.304;2024-03-23T01:37:01;14.80;81.00
84176;DHT22;74306;40.114;18.304;2024-03-23T01:39:29;14.70;81.20
84176;DHT22;74306;40.114;18.304;2024-03-23T01:41:56;14.80;81.20
84176;DHT22;74306;40.114;18.304;2024-03-23T01:44:26;14.80;80.90
84176;DHT22;74306;40.114;18.304;2024-03-23T01:46:53;14.80;81.20
84176;DHT22;74306;40.114;18.304;2024-03-23T01:49:21;14.70;81.50
84176;DHT22;74306;40.114;18.304;2024-03-23T01:51:49;14.50;81.90
84176;DHT22;74306;40.114;18.304;2024-03-23T01:54:17;14.40;82.50
84176;DHT22;74306;40.114;18.304;2024-03-23T01:56:45;14.50;82.20
84176;DHT22;74306;40.114;18.304;2024-03-23T01:59:13;14.50;82.20
84176;DHT22;74306;40.114;18.304;2024-03-23T02:01:42;14.60;82.00
84176;DHT22;74306;40.114;18.304;2024-03-23T02:04:10;14.70;81.70
84176;DHT22;74306;40.114;18.304;2024-03-23T02:06:38;14.80;81.40
84176;DHT22;74306;40.114;18.304;2024-03-23T02:09:07;15.00;81.00
84176;DHT22;74306;40.114;18.304;2024-03-23T02:11:34;15.00;80.80
84176;DHT22;74306;40.114;18.304;2024-03-23T02:14:02;15.10;80.70
84176;DHT22;74306;40.114;18.304;2024-03-23T02:16:30;15.00;80.60
84176;DHT22;74306;40.114;18.304;2024-03-23T02:18:59;15.00;80.90
84176;DHT22;74306;40.114;18.304;2024-03-23T02:21:26;15.10;81.00
84176;DHT22;74306;40.114;18.304;2024-03-23T02:24:00;15.20;80.90
84176;DHT22;74306;40.114;18.304;2024-03-23T02:26:27;15.20;80.60
84176;DHT22;74306;40.114;18.304;2024-03-23T02:28:56;15.10;80.70
84176;DHT22;74306;40.114;18.304;2024-03-23T02:31:24;14.90;81.10
84176;DHT22;74306;40.114;18.304;2024-03-23T02:33:51;15.00;81.10
84176;DHT22;74306;40.114;18.304;2024-03-23T02:36:19;14.90;81.30
84176;DHT22;74306;40.114;18.304;2024-03-23T02:38:47;14.70;81.30
84176;DHT22;74306;40.114;18.304;2024-03-23T02:41:17;14.30;82.30
84176;DHT22;74306;40.114;18.304;2024-03-23T02:43:49;14.40;82.50
84176;DHT22;74306;40.114;18.304;2024-03-23T02:46:17;14.40;82.10
84176;DHT22;74306;40.114;18.304;2024-03-23T02:48:48;14.50;81.90
84176;DHT22;74306;40.114;18.304;2024-03-23T02:51:15;14.60;81.40
84176;DHT22;74306;40.114;18.304;2024-03-23T02:53:44;14.60;81.20
84176;DHT22;74306;40.114;18.304;2024-03-23T02:56:11;14.50;81.00
84176;DHT22;74306;40.114;18.304;2024-03-23T02:58:44;14.50;81.00
84176;DHT22;74306;40.114;18.304;2024-03-23T03:01:11;14.60;80.80
84176;DHT22;74306;40.114;18.304;2024-03-23T03:03:39;14.60;80.60
84176;DHT22;74306;40.114;18.304;2024-03-23T03:06:06;14.50;80.70
84176;DHT22;74306;40.114;18.304;2024-03-23T03:08:35;14.50;80.80
84176;DHT22;74306;40.114;18.304;2024-03-23T03:11:02;14.50;80.90
84176;DHT22;74306;40.114;18.304;2024-03-23T03:13:30;14.50;80.50
84176;DHT22;74306;40.114;18.304;2024-03-23T03:15:59;14.40;81.20
84176;DHT22;74306;40.114;18.304;2024-03-23T03:18:27;14.00;82.10
84176;DHT22;74306;40.114;18.304;2024-03-23T03:20:54;14.30;81.80
84176;DHT22;74306;40.114;18.304;2024-03-23T03:23:23;14.30;81.50
84176;DHT22;74306;40.114;18.304;2024-03-23T03:25:50;14.30;81.30
84176;DHT22;74306;40.114;18.304;2024-03-23T03:28:19;14.30;81.40
84176;DHT22;74306;40.114;18.304;2024-03-23T03:30:46;14.50;81.00
84176;DHT22;74306;40.114;18.304;2024-03-23T03:33:16;14.60;80.80
84176;DHT22;74306;40.114;18.304;2024-03-23T03:35:43;14.50;81.10
84176;DHT22;74306;40.114;18.304;2024-03-23T03:38:12;14.50;80.70
84176;DHT22;74306;40.114;18.304;2024-03-23T03:40:39;14.40;80.90
84176;DHT22;74306;40.114;18.304;2024-03-23T03:43:09;14.20;81.90
84176;DHT22;74306;40.114;18.304;2024-03-23T03:45:36;14.20;81.90
84176;DHT22;74306;40.114;18.304;2024-03-23T03:48:05;14.20;81.70
84176;DHT22;74306;40.114;18.304;2024-03-23T03:50:34;14.20;81.60
84176;DHT22;74306;40.114;18.304;2024-03-23T03:53:03;14.10;81.70
84176;DHT22;74306;40.114;18.304;2024-03-23T03:55:30;14.00;81.80
84176;DHT22;74306;40.114;18.304;2024-03-23T03:57:58;14.20;81.50
84176;DHT22;74306;40.114;18.304;2024-03-23T04:00:25;14.10;80.60
84176;DHT22;74306;40.114;18.304;2024-03-23T04:02:54;14.00;81.30
84176;DHT22;74306;40.114;18.304;2024-03-23T04:05:22;14.10;81.30
84176;DHT22;74306;40.114;18.304;2024-03-23T04:07:51;14.00;81.50
84176;DHT22;74306;40.114;18.304;2024-03-23T04:10:19;14.10;81.20
84176;DHT22;74306;40.114;18.304;2024-03-23T04:12:47;14.10;81.30
84176;DHT22;74306;40.114;18.304;2024-03-23T04:15:15;14.10;81.20
84176;DHT22;74306;40.114;18.304;2024-03-23T04:17:43;13.80;82.00
84176;DHT22;74306;40.114;18.304;2024-03-23T04:20:11;13.80;82.00
84176;DHT22;74306;40.114;18.304;2024-03-23T04:22:40;13.80;81.70
84176;DHT22;74306;40.114;18.304;2024-03-23T04:25:10;13.40;82.70
84176;DHT22;74306;40.114;18.304;2024-03-23T04:27:37;13.40;82.60
84176;DHT22;74306;40.114;18.304;2024-03-23T04:30:06;13.50;82.40
84176;DHT22;74306;40.114;18.304;2024-03-23T04:32:37;13.60;81.70
84176;DHT22;74306;40.114;18.304;2024-03-23T04:35:06;13.80;81.30
84176;DHT22;74306;40.114;18.304;2024-03-23T04:37:36;13.90;80.80
84176;DHT22;74306;40.114;18.304;2024-03-23T04:40:07;13.90;80.10
84176;DHT22;74306;40.114;18.304;2024-03-23T04:42:37;13.80;80.30
84176;DHT22;74306;40.114;18.304;2024-03-23T04:45:06;13.80;80.30
84176;DHT22;74306;40.114;18.304;2024-03-23T04:47:34;13.80;80.40
84176;DHT22;74306;40.114;18.304;2024-03-23T04:50:04;13.80;80.20
84176;DHT22;74306;40.114;18.304;2024-03-23T04:52:32;13.80;80.10
84176;DHT22;74306;40.114;18.304;2024-03-23T04:55:00;13.90;79.90
84176;DHT22;74306;40.114;18.304;2024-03-23T04:57:30;13.90;79.90
84176;DHT22;74306;40.114;18.304;2024-03-23T04:59:59;13.90;79.90
84176;DHT22;74306;40.114;18.304;2024-03-23T05:02:28;14.00;79.90
84176;DHT22;74306;40.114;18.304;2024-03-23T05:04:55;13.90;79.60
84176;DHT22;74306;40.114;18.304;2024-03-23T05:07:23;13.80;79.80
84176;DHT22;74306;40.114;18.304;2024-03-23T05:09:50;13.80;80.10
84176;DHT22;74306;40.114;18.304;2024-03-23T05:12:19;13.90;79.70
84176;DHT22;74306;40.114;18.304;2024-03-23T05:14:46;13.80;79.80
84176;DHT22;74306;40.114;18.304;2024-03-23T05:17:18;13.80;79.60
84176;DHT22;74306;40.114;18.304;2024-03-23T05:19:45;13.90;79.40
84176;DHT22;74306;40.114;18.304;2024-03-23T05:22:13;14.00;79.10
84176;DHT22;74306;40.114;18.304;2024-03-23T05:24:40;13.70;78.40
84176;DHT22;74306;40.114;18.304;2024-03-23T05:27:08;13.40;80.00
84176;DHT22;74306;40.114;18.304;2024-03-23T05:29:36;13.50;80.10
84176;DHT22;74306;40.114;18.304;2024-03-23T05:32:04;13.60;80.20
84176;DHT22;74306;40.114;18.304;2024-03-23T05:34:33;13.80;79.80
84176;DHT22;74306;40.114;18.304;2024-03-23T05:37:01;13.90;79.60
84176;DHT22;74306;40.114;18.304;2024-03-23T05:39:28;14.00;79.40
84176;DHT22;74306;40.114;18.304;2024-03-23T05:41:57;13.80;79.50
84176;DHT22;74306;40.114;18.304;2024-03-23T05:44:24;14.00;79.70
84176;DHT22;74306;40.114;18.304;2024-03-23T05:46:52;14.10;79.40
84176;DHT22;74306;40.114;18.304;2024-03-23T05:49:19;14.00;79.10
84176;DHT22;74306;40.114;18.304;2024-03-23T05:51:49;13.90;79.70
84176;DHT22;74306;40.114;18.304;2024-03-23T05:54:17;13.90;79.80
84176;DHT22;74306;40.114;18.304;2024-03-23T05:56:45;14.00;79.60
84176;DHT22;74306;40.114;18.304;2024-03-23T05:59:12;14.00;80.00
84176;DHT22;74306;40.114;18.304;2024-03-23T06:01:40;14.20;80.20
84176;DHT22;74306;40.114;18.304;2024-03-23T06:04:07;14.30;79.40
84176;DHT22;74306;40.114;18.304;2024-03-23T06:06:36;14.30;79.70
84176;DHT22;74306;40.114;18.304;2024-03-23T06:09:04;14.10;79.90
84176;DHT22;74306;40.114;18.304;2024-03-23T06:11:33;14.20;80.20
84176;DHT22;74306;40.114;18.304;2024-03-23T06:14:00;14.40;80.30
84176;DHT22;74306;40.114;18.304;2024-03-23T06:16:28;14.50;79.80
84176;DHT22;74306;40.114;18.304;2024-03-23T06:18:57;14.40;80.00
84176;DHT22;74306;40.114;18.304;2024-03-23T06:21:25;14.50;80.10
84176;DHT22;74306;40.114;18.304;2024-03-23T06:23:53;14.40;79.50
84176;DHT22;74306;40.114;18.304;2024-03-23T06:26:22;14.70;80.10
84176;DHT22;74306;40.114;18.304;2024-03-23T06:28:50;14.80;79.40
84176;DHT22;74306;40.114;18.304;2024-03-23T06:31:18;14.90;79.80
84176;DHT22;74306;40.114;18.304;2024-03-23T06:33:45;15.10;79.40
84176;DHT22;74306;40.114;18.304;2024-03-23T06:36:13;14.90;79.60
84176;DHT22;74306;40.114;18.304;2024-03-23T06:38:41;15.00;80.10
84176;DHT22;74306;40.114;18.304;2024-03-23T06:41:11;15.30;79.40
84176;DHT22;74306;40.114;18.304;2024-03-23T06:43:40;15.40;79.50
84176;DHT22;74306;40.114;18.304;2024-03-23T06:46:08;15.40;79.20
84176;DHT22;74306;40.114;18.304;2024-03-23T06:48:35;15.50;79.20
84176;DHT22;74306;40.114;18.304;2024-03-23T06:51:04;15.60;79.20
84176;DHT22;74306;40.114;18.304;2024-03-23T06:53:31;15.70;79.20
84176;DHT22;74306;40.114;18.304;2024-03-23T06:55:59;15.80;79.10
84176;DHT22;74306;40.114;18.304;2024-03-23T06:58:27;16.00;79.20
84176;DHT22;74306;40.114;18.304;2024-03-23T07:00:57;16.20;79.10
84176;DHT22;74306;40.114;18.304;2024-03-23T07:03:24;16.30;78.70
84176;DHT22;74306;40.114;18.304;2024-03-23T07:05:52;16.40;78.60
84176;DHT22;74306;40.114;18.304;2024-03-23T07:08:20;16.50;78.90
84176;DHT22;74306;40.114;18.304;2024-03-23T07:10:49;16.60;78.90
84176;DHT22;74306;40.114;18.304;2024-03-23T07:13:16;16.70;78.30
84176;DHT22;74306;40.114;18.304;2024-03-23T07:15:51;16.90;78.80
84176;DHT22;74306;40.114;18.304;2024-03-23T07:18:20;17.20;78.40
84176;DHT22;74306;40.114;18.304;2024-03-23T07:20:55;17.10;78.20
84176;DHT22;74306;40.114;18.304;2024-03-23T07:23:23;16.90;79.00
84176;DHT22;74306;40.114;18.304;2024-03-23T07:25:58;17.20;78.70
84176;DHT22;74306;40.114;18.304;2024-03-23T07:28:25;17.30;77.50
84176;DHT22;74306;40.114;18.304;2024-03-23T07:31:02;17.30;78.10
84176;DHT22;74306;40.114;18.304;2024-03-23T07:33:31;17.40;77.90
84176;DHT22;74306;40.114;18.304;2024-03-23T07:35:59;17.40;77.50
84176;DHT22;74306;40.114;18.304;2024-03-23T07:38:27;17.40;77.90
84176;DHT22;74306;40.114;18.304;2024-03-23T07:41:05;17.50;77.40
84176;DHT22;74306;40.114;18.304;2024-03-23T07:43:33;17.40;77.60
84176;DHT22;74306;40.114;18.304;2024-03-23T07:46:02;17.40;77.60
84176;DHT22;74306;40.114;18.304;2024-03-23T07:48:32;17.40;77.50
84176;DHT22;74306;40.114;18.304;2024-03-23T07:51:01;17.40;77.50
84176;DHT22;74306;40.114;18.304;2024-03-23T07:53:29;17.50;77.10
84176;DHT22;74306;40.114;18.304;2024-03-23T07:55:58;17.50;76.60
84176;DHT22;74306;40.114;18.304;2024-03-23T07:58:26;17.60;76.70
84176;DHT22;74306;40.114;18.304;2024-03-23T08:00:56;17.50;76.80
84176;DHT22;74306;40.114;18.304;2024-03-23T08:03:23;17.60;76.50
84176;DHT22;74306;40.114;18.304;2024-03-23T08:05:53;17.70;76.00
84176;DHT22;74306;40.114;18.304;2024-03-23T08:08:20;17.80;76.10
84176;DHT22;74306;40.114;18.304;2024-03-23T08:10:49;18.00;75.80
84176;DHT22;74306;40.114;18.304;2024-03-23T08:13:17;18.10;75.20
84176;DHT22;74306;40.114;18.304;2024-03-23T08:15:45;18.10;74.50
84176;DHT22;74306;40.114;18.304;2024-03-23T08:18:14;18.00;75.10
84176;DHT22;74306;40.114;18.304;2024-03-23T08:20:42;18.20;73.80
84176;DHT22;74306;40.114;18.304;2024-03-23T08:23:11;18.20;73.00
84176;DHT22;74306;40.114;18.304;2024-03-23T08:25:39;18.20;72.30
84176;DHT22;74306;40.114;18.304;2024-03-23T08:28:07;18.40;71.00
84176;DHT22;74306;40.114;18.304;2024-03-23T08:30:35;18.40;69.70
84176;DHT22;74306;40.114;18.304;2024-03-23T08:33:04;18.50;69.20
84176;DHT22;74306;40.114;18.304;2024-03-23T08:35:31;18.60;67.80
84176;DHT22;74306;40.114;18.304;2024-03-23T08:38:00;18.70;67.20
84176;DHT22;74306;40.114;18.304;2024-03-23T08:40:29;18.80;66.30
84176;DHT22;74306;40.114;18.304;2024-03-23T08:42:57;19.10;66.10
84176;DHT22;74306;40.114;18.304;2024-03-23T08:45:24;18.80;65.30
84176;DHT22;74306;40.114;18.304;2024-03-23T08:47:53;18.80;64.50
84176;DHT22;74306;40.114;18.304;2024-03-23T08:50:20;18.90;63.40
84176;DHT22;74306;40.114;18.304;2024-03-23T08:52:51;18.80;62.80
84176;DHT22;74306;40.114;18.304;2024-03-23T08:55:18;19.10;61.90
84176;DHT22;74306;40.114;18.304;2024-03-23T08:57:47;19.10;61.20
84176;DHT22;74306;40.114;18.304;2024-03-23T09:00:15;18.60;60.60
84176;DHT22;74306;40.114;18.304;2024-03-23T09:02:47;18.60;61.70
84176;DHT22;74306;40.114;18.304;2024-03-23T09:05:14;18.80;61.60
84176;DHT22;74306;40.114;18.304;2024-03-23T09:07:43;19.00;61.60
84176;DHT22;74306;40.114;18.304;2024-03-23T09:10:10;19.20;60.60
84176;DHT22;74306;40.114;18.304;2024-03-23T09:12:38;18.90;59.60
84176;DHT22;74306;40.114;18.304;2024-03-23T09:15:07;19.30;58.40
84176;DHT22;74306;40.114;18.304;2024-03-23T09:17:35;19.60;58.90
84176;DHT22;74306;40.114;18.304;2024-03-23T09:20:03;19.80;59.10
84176;DHT22;74306;40.114;18.304;2024-03-23T09:22:31;20.30;58.80
84176;DHT22;74306;40.114;18.304;2024-03-23T09:24:58;20.30;56.90
84176;DHT22;74306;40.114;18.304;2024-03-23T09:27:27;20.10;57.50
84176;DHT22;74306;40.114;18.304;2024-03-23T09:29:54;20.40;57.10
84176;DHT22;74306;40.114;18.304;2024-03-23T09:32:23;20.80;56.70
84176;DHT22;74306;40.114;18.304;2024-03-23T09:34:51;20.90;56.40
84176;DHT22;74306;40.114;18.304;2024-03-23T09:37:19;21.10;54.00
84176;DHT22;74306;40.114;18.304;2024-03-23T09:39:46;21.30;53.90
84176;DHT22;74306;40.114;18.304;2024-03-23T09:42:14;21.50;53.40
84176;DHT22;74306;40.114;18.304;2024-03-23T09:44:42;21.10;54.20
84176;DHT22;74306;40.114;18.304;2024-03-23T09:47:10;21.50;53.80
84176;DHT22;74306;40.114;18.304;2024-03-23T09:49:39;21.50;53.90
84176;DHT22;74306;40.114;18.304;2024-03-23T09:52:08;21.60;53.40
84176;DHT22;74306;40.114;18.304;2024-03-23T09:54:35;21.70;53.10
84176;DHT22;74306;40.114;18.304;2024-03-23T09:57:04;21.80;52.40
84176;DHT22;74306;40.114;18.304;2024-03-23T09:59:33;21.60;53.10
84176;DHT22;74306;40.114;18.304;2024-03-23T10:02:02;21.40;54.60
84176;DHT22;74306;40.114;18.304;2024-03-23T10:04:40;21.80;53.60
84176;DHT22;74306;40.114;18.304;2024-03-23T10:07:13;22.20;53.20
84176;DHT22;74306;40.114;18.304;2024-03-23T10:09:41;22.20;53.70
84176;DHT22;74306;40.114;18.304;2024-03-23T10:12:10;22.50;53.20
84176;DHT22;74306;40.114;18.304;2024-03-23T10:14:39;22.30;53.70
84176;DHT22;74306;40.114;18.304;2024-03-23T10:17:12;22.70;53.70
84176;DHT22;74306;40.114;18.304;2024-03-23T10:19:42;23.00;53.50
84176;DHT22;74306;40.114;18.304;2024-03-23T10:22:14;23.70;51.80
84176;DHT22;74306;40.114;18.304;2024-03-23T10:24:42;24.50;49.40
84176;DHT22;74306;40.114;18.304;2024-03-23T10:27:15;24.70;48.60
84176;DHT22;74306;40.114;18.304;2024-03-23T10:29:43;25.00;48.00
84176;DHT22;74306;40.114;18.304;2024-03-23T10:32:13;25.40;46.40
84176;DHT22;74306;40.114;18.304;2024-03-23T10:34:41;25.30;45.90
84176;DHT22;74306;40.114;18.304;2024-03-23T10:37:10;24.60;47.30
84176;DHT22;74306;40.114;18.304;2024-03-23T10:39:38;25.50;45.90
84176;DHT22;74306;40.114;18.304;2024-03-23T10:42:08;25.60;45.70
84176;DHT22;74306;40.114;18.304;2024-03-23T10:44:37;26.20;45.30
84176;DHT22;74306;40.114;18.304;2024-03-23T10:47:06;26.70;43.60
84176;DHT22;74306;40.114;18.304;2024-03-23T10:49:34;26.00;45.20
84176;DHT22;74306;40.114;18.304;2024-03-23T10:52:04;25.80;45.30
84176;DHT22;74306;40.114;18.304;2024-03-23T10:54:33;24.90;45.90
84176;DHT22;74306;40.114;18.304;2024-03-23T10:57:05;24.30;47.40
84176;DHT22;74306;40.114;18.304;2024-03-23T10:59:35;23.80;48.90
84176;DHT22;74306;40.114;18.304;2024-03-23T11:02:05;23.30;49.70
84176;DHT22;74306;40.114;18.304;2024-03-23T11:04:36;22.90;50.50
84176;DHT22;74306;40.114;18.304;2024-03-23T11:07:29;22.90;50.90
84176;DHT22;74306;40.114;18.304;2024-03-23T11:09:57;22.00;51.60
84176;DHT22;74306;40.114;18.304;2024-03-23T11:12:27;21.10;53.50
84176;DHT22;74306;40.114;18.304;2024-03-23T11:14:57;20.90;53.50
84176;DHT22;74306;40.114;18.304;2024-03-23T11:17:27;22.30;51.00
84176;DHT22;74306;40.114;18.304;2024-03-23T11:19:56;24.10;47.00
84176;DHT22;74306;40.114;18.304;2024-03-23T11:22:42;24.10;45.70
84176;DHT22;74306;40.114;18.304;2024-03-23T11:25:17;22.50;48.90
84176;DHT22;74306;40.114;18.304;2024-03-23T11:27:49;22.30;49.40
84176;DHT22;74306;40.114;18.304;2024-03-23T11:30:18;22.00;50.50
84176;DHT22;74306;40.114;18.304;2024-03-23T11:32:47;21.90;50.80
84176;DHT22;74306;40.114;18.304;2024-03-23T11:35:28;22.90;49.50
84176;DHT22;74306;40.114;18.304;2024-03-23T11:38:06;22.60;50.30
84176;DHT22;74306;40.114;18.304;2024-03-23T11:40:34;22.30;50.90
84176;DHT22;74306;40.114;18.304;2024-03-23T11:43:03;22.20;51.40
84176;DHT22;74306;40.114;18.304;2024-03-23T11:45:35;22.30;51.30
84176;DHT22;74306;40.114;18.304;2024-03-23T11:48:05;23.30;50.10
84176;DHT22;74306;40.114;18.304;2024-03-23T11:50:33;24.30;47.50
84176;DHT22;74306;40.114;18.304;2024-03-23T11:53:15;25.60;44.60
84176;DHT22;74306;40.114;18.304;2024-03-23T11:55:47;26.80;40.90
84176;DHT22;74306;40.114;18.304;2024-03-23T11:58:17;27.20;40.80
84176;DHT22;74306;40.114;18.304;2024-03-23T12:00:50;26.50;41.00
84176;DHT22;74306;40.114;18.304;2024-03-23T12:03:19;24.00;46.20
84176;DHT22;74306;40.114;18.304;2024-03-23T12:05:53;23.00;47.70
84176;DHT22;74306;40.114;18.304;2024-03-23T12:08:25;22.40;48.20
84176;DHT22;74306;40.114;18.304;2024-03-23T12:11:05;22.00;48.20
84176;DHT22;74306;40.114;18.304;2024-03-23T12:13:34;21.60;47.90
84176;DHT22;74306;40.114;18.304;2024-03-23T12:16:09;21.30;48.10
84176;DHT22;74306;40.114;18.304;2024-03-23T12:18:40;21.00;49.20
84176;DHT22;74306;40.114;18.304;2024-03-23T12:21:08;20.70;49.10
84176;DHT22;74306;40.114;18.304;2024-03-23T12:23:56;20.60;49.30
84176;DHT22;74306;40.114;18.304;2024-03-23T12:26:23;20.30;50.70
84176;DHT22;74306;40.114;18.304;2024-03-23T12:28:51;20.20;50.30
84176;DHT22;74306;40.114;18.304;2024-03-23T12:31:18;20.20;50.50
84176;DHT22;74306;40.114;18.304;2024-03-23T12:33:46;20.30;50.80
84176;DHT22;74306;40.114;18.304;2024-03-23T12:36:14;20.10;52.50
84176;DHT22;74306;40.114;18.304;2024-03-23T12:38:42;19.90;54.90
84176;DHT22;74306;40.114;18.304;2024-03-23T12:41:12;19.70;58.20
84176;DHT22;74306;40.114;18.304;2024-03-23T12:43:41;19.30;61.50
84176;DHT22;74306;40.114;18.304;2024-03-23T12:46:08;19.30;61.80
84176;DHT22;74306;40.114;18.304;2024-03-23T12:48:38;19.40;62.80
84176;DHT22;74306;40.114;18.304;2024-03-23T12:51:05;19.10;65.10
84176;DHT22;74306;40.114;18.304;2024-03-23T12:53:33;19.20;64.00
84176;DHT22;74306;40.114;18.304;2024-03-23T12:56:01;19.50;63.80
84176;DHT22;74306;40.114;18.304;2024-03-23T12:58:31;19.80;62.70
84176;DHT22;74306;40.114;18.304;2024-03-23T13:00:58;19.50;62.60
84176;DHT22;74306;40.114;18.304;2024-03-23T13:03:27;19.30;61.90
84176;DHT22;74306;40.114;18.304;2024-03-23T13:05:54;19.00;61.60
84176;DHT22;74306;40.114;18.304;2024-03-23T13:08:22;19.30;61.70
84176;DHT22;74306;40.114;18.304;2024-03-23T13:10:51;19.50;60.20
84176;DHT22;74306;40.114;18.304;2024-03-23T13:13:20;19.40;60.00
84176;DHT22;74306;40.114;18.304;2024-03-23T13:15:51;19.50;59.20
84176;DHT22;74306;40.114;18.304;2024-03-23T13:18:19;19.50;59.20
84176;DHT22;74306;40.114;18.304;2024-03-23T13:20:46;19.60;59.10
84176;DHT22;74306;40.114;18.304;2024-03-23T13:23:15;19.80;58.30
84176;DHT22;74306;40.114;18.304;2024-03-23T13:25:49;19.90;57.50
84176;DHT22;74306;40.114;18.304;2024-03-23T13:28:19;20.30;57.20
84176;DHT22;74306;40.114;18.304;2024-03-23T13:30:52;20.30;56.50
84176;DHT22;74306;40.114;18.304;2024-03-23T13:33:21;20.10;55.60
84176;DHT22;74306;40.114;18.304;2024-03-23T13:35:51;20.10;54.70
84176;DHT22;74306;40.114;18.304;2024-03-23T13:38:20;19.50;55.40
84176;DHT22;74306;40.114;18.304;2024-03-23T13:40:52;19.80;54.80
84176;DHT22;74306;40.114;18.304;2024-03-23T13:43:20;20.10;53.70
84176;DHT22;74306;40.114;18.304;2024-03-23T13:45:48;20.40;53.10
84176;DHT22;74306;40.114;18.304;2024-03-23T13:48:19;20.40;52.90
84176;DHT22;74306;40.114;18.304;2024-03-23T13:50:46;20.30;52.90
84176;DHT22;74306;40.114;18.304;2024-03-23T13:53:15;20.60;52.50
84176;DHT22;74306;40.114;18.304;2024-03-23T13:55:46;21.10;51.10
84176;DHT22;74306;40.114;18.304;2024-03-23T13:58:16;21.10;50.10
84176;DHT22;74306;40.114;18.304;2024-03-23T14:00:43;21.20;49.30
84176;DHT22;74306;40.114;18.304;2024-03-23T14:03:12;21.40;47.50
84176;DHT22;74306;40.114;18.304;2024-03-23T14:05:41;21.80;47.20
84176;DHT22;74306;40.114;18.304;2024-03-23T14:08:10;22.40;45.80
84176;DHT22;74306;40.114;18.304;2024-03-23T14:10:41;22.60;43.70
84176;DHT22;74306;40.114;18.304;2024-03-23T14:13:09;22.40;42.90
84176;DHT22;74306;40.114;18.304;2024-03-23T14:15:36;21.70;45.10
84176;DHT22;74306;40.114;18.304;2024-03-23T14:18:06;21.60;45.00
84176;DHT22;74306;40.114;18.304;2024-03-23T14:20:36;21.30;45.60
84176;DHT22;74306;40.114;18.304;2024-03-23T14:23:06;21.40;45.80
84176;DHT22;74306;40.114;18.304;2024-03-23T14:25:33;21.20;46.60
84176;DHT22;74306;40.114;18.304;2024-03-23T14:28:01;21.30;46.60
84176;DHT22;74306;40.114;18.304;2024-03-23T14:30:28;21.40;46.00
84176;DHT22;74306;40.114;18.304;2024-03-23T14:32:58;22.00;45.20
84176;DHT22;74306;40.114;18.304;2024-03-23T14:35:26;22.30;45.10
84176;DHT22;74306;40.114;18.304;2024-03-23T14:37:54;22.90;43.70
84176;DHT22;74306;40.114;18.304;2024-03-23T14:40:23;23.10;42.80
84176;DHT22;74306;40.114;18.304;2024-03-23T14:42:53;23.10;42.00
84176;DHT22;74306;40.114;18.304;2024-03-23T14:45:21;22.80;41.90
84176;DHT22;74306;40.114;18.304;2024-03-23T14:47:51;22.70;42.10
84176;DHT22;74306;40.114;18.304;2024-03-23T14:50:18;22.70;42.60
84176;DHT22;74306;40.114;18.304;2024-03-23T14:52:48;22.80;42.30
84176;DHT22;74306;40.114;18.304;2024-03-23T14:55:15;23.00;42.40
84176;DHT22;74306;40.114;18.304;2024-03-23T14:57:45;23.00;42.50
84176;DHT22;74306;40.114;18.304;2024-03-23T15:00:13;23.10;42.90
84176;DHT22;74306;40.114;18.304;2024-03-23T15:02:41;23.20;42.60
84176;DHT22;74306;40.114;18.304;2024-03-23T15:05:09;22.80;43.70
84176;DHT22;74306;40.114;18.304;2024-03-23T15:07:37;22.80;44.00
84176;DHT22;74306;40.114;18.304;2024-03-23T15:10:06;22.70;44.10
84176;DHT22;74306;40.114;18.304;2024-03-23T15:12:35;22.00;45.30
84176;DHT22;74306;40.114;18.304;2024-03-23T15:15:04;22.40;44.70
84176;DHT22;74306;40.114;18.304;2024-03-23T15:17:33;22.10;43.40
84176;DHT22;74306;40.114;18.304;2024-03-23T15:20:04;21.80;44.30
84176;DHT22;74306;40.114;18.304;2024-03-23T15:22:33;22.00;44.60
84176;DHT22;74306;40.114;18.304;2024-03-23T15:25:00;22.50;44.20
84176;DHT22;74306;40.114;18.304;2024-03-23T15:27:28;22.60;43.50
84176;DHT22;74306;40.114;18.304;2024-03-23T15:29:56;23.00;43.40
84176;DHT22;74306;40.114;18.304;2024-03-23T15:32:25;23.10;43.60
84176;DHT22;74306;40.114;18.304;2024-03-23T15:34:53;23.00;44.20
84176;DHT22;74306;40.114;18.304;2024-03-23T15:37:21;23.30;43.90
84176;DHT22;74306;40.114;18.304;2024-03-23T15:39:48;24.00;43.20
84176;DHT22;74306;40.114;18.304;2024-03-23T15:42:16;24.40;41.50
84176;DHT22;74306;40.114;18.304;2024-03-23T15:44:44;24.80;41.00
84176;DHT22;74306;40.114;18.304;2024-03-23T15:47:12;25.30;39.70
84176;DHT22;74306;40.114;18.304;2024-03-23T15:49:42;25.30;40.10
84176;DHT22;74306;40.114;18.304;2024-03-23T15:52:10;25.90;39.40
84176;DHT22;74306;40.114;18.304;2024-03-23T15:54:37;25.50;40.30
84176;DHT22;74306;40.114;18.304;2024-03-23T15:57:06;25.30;40.20
84176;DHT22;74306;40.114;18.304;2024-03-23T15:59:34;24.70;41.10
84176;DHT22;74306;40.114;18.304;2024-03-23T16:02:03;24.00;42.50
84176;DHT22;74306;40.114;18.304;2024-03-23T16:04:30;23.30;43.20
84176;DHT22;74306;40.114;18.304;2024-03-23T16:07:00;22.40;44.90
84176;DHT22;74306;40.114;18.304;2024-03-23T16:09:27;22.00;46.30
84176;DHT22;74306;40.114;18.304;2024-03-23T16:11:56;21.30;48.00
84176;DHT22;74306;40.114;18.304;2024-03-23T16:14:23;20.80;49.10
84176;DHT22;74306;40.114;18.304;2024-03-23T16:16:51;20.50;49.90